sensor_id;sensor_type;location;lat;lon;timestamp;P1;durP1;ratioP1;P2;durP2;ratioP2
30770;SDS011;17502;51.698;-0.292;2022-09-03T00:01:13;24.35;;;11.07;;
30770;SDS011;17502;51.698;-0.292;2022-09-03T00:03:45;31.17;;;13.43;;
30770;SDS011;17502;51.698;-0.292;2022-09-03T00:06:16;25.50;;;12.10;;
30770;SDS011;17502;51.698;-0.292;2022-09-03T00:08:44;26.73;;;12.52;;
30770;SDS011;17502;51.698;-0.292;2022-09-03T00:11:17;24.63;;;10.40;;
30770;SDS011;17502;51.698;-0.292;2022-09-03T00:13:44;29.90;;;12.57;;
30770;SDS011;17502;51.698;-0.292;2022-09-03T00:16:13;24.58;;;10.88;;
30770;SDS011;17502;51.698;-0.292;2022-09-03T00:18:45;24.90;;;11.05;;
30770;SDS011;17502;51.698;-0.292;2022-09-03T00:21:46;18.50;;;9.63;;
30770;SDS011;17502;51.698;-0.292;2022-09-03T00:24:06;28.20;;;12.15;;
30770;SDS011;17502;51.698;-0.292;2022-09-03T00:26:33;23.50;;;10.02;;
30770;SDS011;17502;51.698;-0.292;2022-09-03T00:31:31;25.35;;;9.25;;
30770;SDS011;17502;51.698;-0.292;2022-09-03T00:34:05;15.88;;;8.25;;
30770;SDS011;17502;51.698;-0.292;2022-09-03T00:36:34;21.02;;;7.68;;
30770;SDS011;17502;51.698;-0.292;2022-09-03T00:39:07;19.80;;;7.97;;
30770;SDS011;17502;51.698;-0.292;2022-09-03T00:44:12;18.35;;;8.18;;
30770;SDS011;17502;51.698;-0.292;2022-09-03T00:46:48;16.95;;;8.88;;
30770;SDS011;17502;51.698;-0.292;2022-09-03T00:49:26;15.13;;;8.40;;
30770;SDS011;17502;51.698;-0.292;2022-09-03T00:54:42;16.05;;;7.72;;
30770;SDS011;17502;51.698;-0.292;2022-09-03T01:07:35;16.17;;;6.80;;
30770;SDS011;17502;51.698;-0.292;2022-09-03T01:13:26;13.82;;;6.70;;
30770;SDS011;17502;51.698;-0.292;2022-09-03T01:15:29;17.88;;;6.88;;
30770;SDS011;17502;51.698;-0.292;2022-09-03T01:18:06;14.43;;;6.15;;
30770;SDS011;17502;51.698;-0.292;2022-09-03T01:20:40;15.18;;;6.53;;
30770;SDS011;17502;51.698;-0.292;2022-09-03T01:23:22;13.98;;;6.38;;
30770;SDS011;17502;51.698;-0.292;2022-09-03T01:26:09;15.05;;;6.18;;
30770;SDS011;17502;51.698;-0.292;2022-09-03T01:34:31;19.30;;;7.95;;
30770;SDS011;17502;51.698;-0.292;2022-09-03T01:37:06;10.98;;;6.43;;
30770;SDS011;17502;51.698;-0.292;2022-09-03T01:44:55;10.68;;;6.45;;
30770;SDS011;17502;51.698;-0.292;2022-09-03T01:50:29;17.35;;;6.93;;
30770;SDS011;17502;51.698;-0.292;2022-09-03T01:53:06;13.43;;;6.80;;
30770;SDS011;17502;51.698;-0.292;2022-09-03T02:00:33;15.73;;;7.30;;
30770;SDS011;17502;51.698;-0.292;2022-09-03T02:03:01;11.85;;;7.35;;
30770;SDS011;17502;51.698;-0.292;2022-09-03T02:05:30;15.90;;;8.07;;
30770;SDS011;17502;51.698;-0.292;2022-09-03T02:10:24;18.90;;;8.95;;
30770;SDS011;17502;51.698;-0.292;2022-09-03T02:12:57;17.77;;;8.02;;
30770;SDS011;17502;51.698;-0.292;2022-09-03T02:15:24;16.48;;;8.15;;
30770;SDS011;17502;51.698;-0.292;2022-09-03T02:17:52;16.95;;;8.90;;
30770;SDS011;17502;51.698;-0.292;2022-09-03T02:20:21;17.02;;;8.57;;
30770;SDS011;17502;51.698;-0.292;2022-09-03T02:22:47;24.23;;;8.43;;
30770;SDS011;17502;51.698;-0.292;2022-09-03T02:25:15;24.73;;;7.97;;
30770;SDS011;17502;51.698;-0.292;2022-09-03T02:27:41;21.92;;;8.90;;
30770;SDS011;17502;51.698;-0.292;2022-09-03T02:30:08;19.63;;;8.60;;
30770;SDS011;17502;51.698;-0.292;2022-09-03T02:32:35;19.92;;;10.27;;
30770;SDS011;17502;51.698;-0.292;2022-09-03T02:35:01;31.27;;;11.50;;
30770;SDS011;17502;51.698;-0.292;2022-09-03T02:37:27;26.00;;;10.48;;
30770;SDS011;17502;51.698;-0.292;2022-09-03T02:39:53;24.38;;;10.18;;
30770;SDS011;17502;51.698;-0.292;2022-09-03T02:42:19;24.45;;;10.43;;
30770;SDS011;17502;51.698;-0.292;2022-09-03T02:44:57;26.52;;;11.15;;
30770;SDS011;17502;51.698;-0.292;2022-09-03T02:47:27;24.98;;;10.57;;
30770;SDS011;17502;51.698;-0.292;2022-09-03T02:49:56;24.80;;;10.35;;
30770;SDS011;17502;51.698;-0.292;2022-09-03T02:52:22;24.67;;;10.65;;
30770;SDS011;17502;51.698;-0.292;2022-09-03T02:54:48;28.75;;;11.77;;
30770;SDS011;17502;51.698;-0.292;2022-09-03T02:57:14;22.77;;;10.73;;
30770;SDS011;17502;51.698;-0.292;2022-09-03T02:59:41;24.83;;;11.50;;
30770;SDS011;17502;51.698;-0.292;2022-09-03T03:02:09;24.98;;;10.73;;
30770;SDS011;17502;51.698;-0.292;2022-09-03T03:04:36;26.02;;;11.13;;
30770;SDS011;17502;51.698;-0.292;2022-09-03T03:07:02;37.35;;;11.13;;
30770;SDS011;17502;51.698;-0.292;2022-09-03T03:09:28;22.48;;;10.00;;
30770;SDS011;17502;51.698;-0.292;2022-09-03T03:11:54;20.85;;;10.10;;
30770;SDS011;17502;51.698;-0.292;2022-09-03T03:14:20;29.17;;;10.65;;
30770;SDS011;17502;51.698;-0.292;2022-09-03T03:16:47;26.73;;;11.38;;
30770;SDS011;17502;51.698;-0.292;2022-09-03T03:19:13;30.85;;;12.20;;
30770;SDS011;17502;51.698;-0.292;2022-09-03T03:21:39;28.98;;;11.23;;
30770;SDS011;17502;51.698;-0.292;2022-09-03T03:24:06;26.13;;;11.50;;
30770;SDS011;17502;51.698;-0.292;2022-09-03T03:26:32;28.42;;;11.18;;
30770;SDS011;17502;51.698;-0.292;2022-09-03T03:28:59;33.47;;;12.20;;
30770;SDS011;17502;51.698;-0.292;2022-09-03T03:31:25;20.45;;;9.98;;
30770;SDS011;17502;51.698;-0.292;2022-09-03T03:33:52;25.38;;;11.85;;
30770;SDS011;17502;51.698;-0.292;2022-09-03T03:36:18;30.38;;;13.55;;
30770;SDS011;17502;51.698;-0.292;2022-09-03T03:38:45;22.67;;;10.30;;
30770;SDS011;17502;51.698;-0.292;2022-09-03T03:41:15;39.05;;;13.13;;
30770;SDS011;17502;51.698;-0.292;2022-09-03T03:43:41;25.45;;;11.77;;
30770;SDS011;17502;51.698;-0.292;2022-09-03T03:46:07;27.70;;;13.07;;
30770;SDS011;17502;51.698;-0.292;2022-09-03T03:48:35;25.58;;;12.57;;
30770;SDS011;17502;51.698;-0.292;2022-09-03T03:51:02;24.45;;;10.63;;
30770;SDS011;17502;51.698;-0.292;2022-09-03T03:53:31;25.73;;;11.13;;
30770;SDS011;17502;51.698;-0.292;2022-09-03T03:55:59;37.53;;;12.05;;
30770;SDS011;17502;51.698;-0.292;2022-09-03T03:58:29;27.50;;;12.80;;
30770;SDS011;17502;51.698;-0.292;2022-09-03T04:01:02;30.77;;;12.80;;
30770;SDS011;17502;51.698;-0.292;2022-09-03T04:03:29;37.00;;;14.32;;
30770;SDS011;17502;51.698;-0.292;2022-09-03T04:05:55;35.03;;;12.35;;
30770;SDS011;17502;51.698;-0.292;2022-09-03T04:08:21;24.38;;;12.18;;
30770;SDS011;17502;51.698;-0.292;2022-09-03T04:10:48;27.80;;;11.70;;
30770;SDS011;17502;51.698;-0.292;2022-09-03T04:13:14;29.30;;;12.57;;
30770;SDS011;17502;51.698;-0.292;2022-09-03T04:15:40;22.00;;;11.07;;
30770;SDS011;17502;51.698;-0.292;2022-09-03T04:18:06;30.88;;;13.05;;
30770;SDS011;17502;51.698;-0.292;2022-09-03T04:20:32;30.80;;;13.30;;
30770;SDS011;17502;51.698;-0.292;2022-09-03T04:23:00;31.20;;;13.07;;
30770;SDS011;17502;51.698;-0.292;2022-09-03T04:25:26;31.45;;;14.18;;
30770;SDS011;17502;51.698;-0.292;2022-09-03T04:27:52;28.60;;;12.75;;
30770;SDS011;17502;51.698;-0.292;2022-09-03T04:30:18;24.50;;;12.07;;
30770;SDS011;17502;51.698;-0.292;2022-09-03T04:32:45;28.75;;;12.18;;
30770;SDS011;17502;51.698;-0.292;2022-09-03T04:35:17;27.65;;;11.95;;
30770;SDS011;17502;51.698;-0.292;2022-09-03T04:37:44;30.08;;;11.60;;
30770;SDS011;17502;51.698;-0.292;2022-09-03T04:40:11;28.23;;;11.98;;
30770;SDS011;17502;51.698;-0.292;2022-09-03T04:42:37;30.42;;;11.65;;
30770;SDS011;17502;51.698;-0.292;2022-09-03T04:45:03;27.05;;;12.40;;
30770;SDS011;17502;51.698;-0.292;2022-09-03T04:47:29;41.10;;;13.13;;
30770;SDS011;17502;51.698;-0.292;2022-09-03T04:49:56;24.13;;;11.55;;
30770;SDS011;17502;51.698;-0.292;2022-09-03T04:52:22;33.30;;;12.27;;
30770;SDS011;17502;51.698;-0.292;2022-09-03T04:54:48;23.77;;;11.57;;
30770;SDS011;17502;51.698;-0.292;2022-09-03T04:57:14;28.67;;;11.50;;
30770;SDS011;17502;51.698;-0.292;2022-09-03T04:59:40;24.50;;;11.43;;
30770;SDS011;17502;51.698;-0.292;2022-09-03T05:02:06;35.75;;;12.02;;
30770;SDS011;17502;51.698;-0.292;2022-09-03T05:04:33;25.15;;;10.63;;
30770;SDS011;17502;51.698;-0.292;2022-09-03T05:07:00;27.48;;;12.55;;
30770;SDS011;17502;51.698;-0.292;2022-09-03T05:09:26;21.75;;;10.90;;
30770;SDS011;17502;51.698;-0.292;2022-09-03T05:11:52;25.27;;;11.52;;
30770;SDS011;17502;51.698;-0.292;2022-09-03T05:14:18;23.95;;;11.05;;
30770;SDS011;17502;51.698;-0.292;2022-09-03T05:16:44;25.92;;;11.38;;
30770;SDS011;17502;51.698;-0.292;2022-09-03T05:19:10;22.60;;;9.95;;
30770;SDS011;17502;51.698;-0.292;2022-09-03T05:21:36;29.02;;;11.43;;
30770;SDS011;17502;51.698;-0.292;2022-09-03T05:24:02;21.52;;;10.35;;
30770;SDS011;17502;51.698;-0.292;2022-09-03T05:26:29;23.63;;;9.93;;
30770;SDS011;17502;51.698;-0.292;2022-09-03T05:28:57;21.90;;;10.98;;
30770;SDS011;17502;51.698;-0.292;2022-09-03T05:31:24;17.67;;;10.20;;
30770;SDS011;17502;51.698;-0.292;2022-09-03T05:33:53;25.42;;;10.77;;
30770;SDS011;17502;51.698;-0.292;2022-09-03T05:36:20;25.52;;;9.45;;
30770;SDS011;17502;51.698;-0.292;2022-09-03T05:38:47;26.38;;;10.55;;
30770;SDS011;17502;51.698;-0.292;2022-09-03T05:41:14;23.10;;;10.98;;
30770;SDS011;17502;51.698;-0.292;2022-09-03T05:43:41;26.10;;;11.82;;
30770;SDS011;17502;51.698;-0.292;2022-09-03T05:46:08;38.38;;;13.05;;
30770;SDS011;17502;51.698;-0.292;2022-09-03T05:48:35;31.35;;;12.63;;
30770;SDS011;17502;51.698;-0.292;2022-09-03T05:51:06;24.00;;;11.80;;
30770;SDS011;17502;51.698;-0.292;2022-09-03T05:53:33;35.50;;;13.18;;
30770;SDS011;17502;51.698;-0.292;2022-09-03T05:56:01;31.50;;;11.98;;
30770;SDS011;17502;51.698;-0.292;2022-09-03T05:58:32;29.52;;;11.65;;
30770;SDS011;17502;51.698;-0.292;2022-09-03T06:00:58;28.65;;;12.50;;
30770;SDS011;17502;51.698;-0.292;2022-09-03T06:03:25;29.98;;;11.70;;
30770;SDS011;17502;51.698;-0.292;2022-09-03T06:05:52;29.67;;;12.20;;
30770;SDS011;17502;51.698;-0.292;2022-09-03T06:08:18;31.75;;;13.35;;
30770;SDS011;17502;51.698;-0.292;2022-09-03T06:10:45;27.90;;;11.68;;
30770;SDS011;17502;51.698;-0.292;2022-09-03T06:13:11;26.02;;;11.75;;
30770;SDS011;17502;51.698;-0.292;2022-09-03T06:15:37;31.75;;;11.88;;
30770;SDS011;17502;51.698;-0.292;2022-09-03T06:18:03;25.40;;;12.02;;
30770;SDS011;17502;51.698;-0.292;2022-09-03T06:20:29;22.38;;;10.70;;
30770;SDS011;17502;51.698;-0.292;2022-09-03T06:22:56;18.98;;;9.27;;
30770;SDS011;17502;51.698;-0.292;2022-09-03T06:25:22;25.60;;;10.00;;
30770;SDS011;17502;51.698;-0.292;2022-09-03T06:27:48;28.65;;;10.77;;
30770;SDS011;17502;51.698;-0.292;2022-09-03T06:30:15;24.73;;;10.80;;
30770;SDS011;17502;51.698;-0.292;2022-09-03T06:32:45;31.83;;;11.02;;
30770;SDS011;17502;51.698;-0.292;2022-09-03T06:35:11;27.13;;;10.88;;
30770;SDS011;17502;51.698;-0.292;2022-09-03T06:37:40;31.15;;;10.15;;
30770;SDS011;17502;51.698;-0.292;2022-09-03T06:40:06;27.33;;;10.95;;
30770;SDS011;17502;51.698;-0.292;2022-09-03T06:42:36;26.67;;;11.57;;
30770;SDS011;17502;51.698;-0.292;2022-09-03T06:45:03;20.55;;;10.98;;
30770;SDS011;17502;51.698;-0.292;2022-09-03T06:47:30;25.80;;;10.05;;
30770;SDS011;17502;51.698;-0.292;2022-09-03T06:49:57;20.30;;;8.98;;
30770;SDS011;17502;51.698;-0.292;2022-09-03T06:52:24;19.63;;;9.43;;
30770;SDS011;17502;51.698;-0.292;2022-09-03T06:54:50;19.80;;;9.63;;
30770;SDS011;17502;51.698;-0.292;2022-09-03T06:57:16;16.05;;;8.32;;
30770;SDS011;17502;51.698;-0.292;2022-09-03T06:59:42;16.20;;;8.88;;
30770;SDS011;17502;51.698;-0.292;2022-09-03T07:02:09;34.72;;;9.80;;
30770;SDS011;17502;51.698;-0.292;2022-09-03T07:04:35;18.92;;;9.43;;
30770;SDS011;17502;51.698;-0.292;2022-09-03T07:07:01;16.70;;;8.48;;
30770;SDS011;17502;51.698;-0.292;2022-09-03T07:09:27;20.65;;;9.00;;
30770;SDS011;17502;51.698;-0.292;2022-09-03T07:11:53;20.75;;;9.70;;
30770;SDS011;17502;51.698;-0.292;2022-09-03T07:14:19;20.55;;;9.63;;
30770;SDS011;17502;51.698;-0.292;2022-09-03T07:16:46;19.65;;;8.63;;
30770;SDS011;17502;51.698;-0.292;2022-09-03T07:19:13;29.73;;;9.05;;
30770;SDS011;17502;51.698;-0.292;2022-09-03T07:21:39;18.50;;;9.48;;
30770;SDS011;17502;51.698;-0.292;2022-09-03T07:24:06;17.20;;;8.98;;
30770;SDS011;17502;51.698;-0.292;2022-09-03T07:26:36;15.13;;;8.10;;
30770;SDS011;17502;51.698;-0.292;2022-09-03T07:29:03;16.35;;;7.68;;
30770;SDS011;17502;51.698;-0.292;2022-09-03T07:31:33;14.05;;;7.38;;
30770;SDS011;17502;51.698;-0.292;2022-09-03T07:34:00;15.30;;;6.78;;
30770;SDS011;17502;51.698;-0.292;2022-09-03T07:36:28;19.58;;;7.63;;
30770;SDS011;17502;51.698;-0.292;2022-09-03T07:38:55;16.05;;;6.85;;
30770;SDS011;17502;51.698;-0.292;2022-09-03T07:41:22;15.70;;;6.15;;
30770;SDS011;17502;51.698;-0.292;2022-09-03T07:43:49;17.52;;;7.35;;
30770;SDS011;17502;51.698;-0.292;2022-09-03T07:46:16;14.45;;;6.88;;
30770;SDS011;17502;51.698;-0.292;2022-09-03T07:48:51;10.90;;;5.28;;
30770;SDS011;17502;51.698;-0.292;2022-09-03T07:51:18;14.50;;;5.75;;
30770;SDS011;17502;51.698;-0.292;2022-09-03T07:53:45;11.85;;;5.93;;
30770;SDS011;17502;51.698;-0.292;2022-09-03T07:56:11;11.57;;;5.50;;
30770;SDS011;17502;51.698;-0.292;2022-09-03T07:58:38;9.98;;;4.95;;
30770;SDS011;17502;51.698;-0.292;2022-09-03T08:03:34;9.20;;;4.97;;
30770;SDS011;17502;51.698;-0.292;2022-09-03T08:06:04;11.35;;;6.10;;
30770;SDS011;17502;51.698;-0.292;2022-09-03T08:08:31;11.38;;;5.50;;
30770;SDS011;17502;51.698;-0.292;2022-09-03T08:11:07;12.77;;;5.80;;
30770;SDS011;17502;51.698;-0.292;2022-09-03T08:13:39;11.35;;;4.78;;
30770;SDS011;17502;51.698;-0.292;2022-09-03T08:16:07;11.45;;;5.68;;
30770;SDS011;17502;51.698;-0.292;2022-09-03T08:18:34;10.82;;;5.45;;
30770;SDS011;17502;51.698;-0.292;2022-09-03T08:21:04;10.30;;;5.47;;
30770;SDS011;17502;51.698;-0.292;2022-09-03T08:23:31;6.68;;;3.92;;
30770;SDS011;17502;51.698;-0.292;2022-09-03T08:25:58;13.35;;;3.95;;
30770;SDS011;17502;51.698;-0.292;2022-09-03T08:28:24;7.47;;;4.38;;
30770;SDS011;17502;51.698;-0.292;2022-09-03T08:30:50;7.22;;;3.75;;
30770;SDS011;17502;51.698;-0.292;2022-09-03T08:33:16;8.50;;;4.47;;
30770;SDS011;17502;51.698;-0.292;2022-09-03T08:36:01;13.20;;;3.67;;
30770;SDS011;17502;51.698;-0.292;2022-09-03T08:38:29;8.70;;;3.20;;
30770;SDS011;17502;51.698;-0.292;2022-09-03T08:41:07;7.82;;;3.28;;
30770;SDS011;17502;51.698;-0.292;2022-09-03T08:43:38;5.90;;;3.63;;
30770;SDS011;17502;51.698;-0.292;2022-09-03T08:46:08;5.15;;;2.88;;
30770;SDS011;17502;51.698;-0.292;2022-09-03T08:48:34;8.18;;;4.40;;
30770;SDS011;17502;51.698;-0.292;2022-09-03T08:51:00;7.30;;;3.65;;
30770;SDS011;17502;51.698;-0.292;2022-09-03T08:53:44;4.63;;;3.38;;
30770;SDS011;17502;51.698;-0.292;2022-09-03T08:56:23;8.43;;;4.22;;
30770;SDS011;17502;51.698;-0.292;2022-09-03T08:58:50;5.60;;;2.95;;
30770;SDS011;17502;51.698;-0.292;2022-09-03T09:01:39;6.72;;;2.40;;
30770;SDS011;17502;51.698;-0.292;2022-09-03T09:04:20;6.93;;;3.10;;
30770;SDS011;17502;51.698;-0.292;2022-09-03T09:06:50;4.43;;;2.70;;
30770;SDS011;17502;51.698;-0.292;2022-09-03T09:09:40;6.07;;;3.58;;
30770;SDS011;17502;51.698;-0.292;2022-09-03T09:14:37;8.77;;;2.90;;
30770;SDS011;17502;51.698;-0.292;2022-09-03T09:22:06;9.65;;;2.90;;
30770;SDS011;17502;51.698;-0.292;2022-09-03T09:24:35;5.65;;;3.50;;
30770;SDS011;17502;51.698;-0.292;2022-09-03T09:27:03;5.82;;;3.25;;
30770;SDS011;17502;51.698;-0.292;2022-09-03T09:29:36;6.75;;;2.53;;
30770;SDS011;17502;51.698;-0.292;2022-09-03T09:32:03;5.30;;;3.17;;
30770;SDS011;17502;51.698;-0.292;2022-09-03T09:34:33;6.15;;;3.45;;
30770;SDS011;17502;51.698;-0.292;2022-09-03T09:37:00;4.32;;;2.67;;
30770;SDS011;17502;51.698;-0.292;2022-09-03T09:39:28;6.20;;;3.47;;
30770;SDS011;17502;51.698;-0.292;2022-09-03T09:41:58;4.22;;;2.33;;
30770;SDS011;17502;51.698;-0.292;2022-09-03T09:44:26;5.50;;;3.17;;
30770;SDS011;17502;51.698;-0.292;2022-09-03T09:47:00;6.78;;;2.55;;
30770;SDS011;17502;51.698;-0.292;2022-09-03T09:49:32;7.55;;;3.72;;
30770;SDS011;17502;51.698;-0.292;2022-09-03T09:52:04;5.53;;;2.95;;
30770;SDS011;17502;51.698;-0.292;2022-09-03T09:54:30;8.68;;;4.13;;
30770;SDS011;17502;51.698;-0.292;2022-09-03T09:57:03;6.68;;;2.63;;
30770;SDS011;17502;51.698;-0.292;2022-09-03T09:59:30;5.65;;;3.17;;
30770;SDS011;17502;51.698;-0.292;2022-09-03T10:02:08;5.72;;;3.42;;
30770;SDS011;17502;51.698;-0.292;2022-09-03T10:04:34;4.57;;;2.85;;
30770;SDS011;17502;51.698;-0.292;2022-09-03T10:07:12;5.47;;;2.95;;
30770;SDS011;17502;51.698;-0.292;2022-09-03T10:09:44;4.82;;;3.03;;
30770;SDS011;17502;51.698;-0.292;2022-09-03T10:12:16;6.55;;;2.65;;
30770;SDS011;17502;51.698;-0.292;2022-09-03T10:20:03;7.00;;;2.47;;
30770;SDS011;17502;51.698;-0.292;2022-09-03T10:26:12;8.02;;;2.75;;
30770;SDS011;17502;51.698;-0.292;2022-09-03T10:28:17;4.63;;;2.58;;
30770;SDS011;17502;51.698;-0.292;2022-09-03T10:33:25;4.72;;;3.33;;
30770;SDS011;17502;51.698;-0.292;2022-09-03T10:36:00;4.63;;;2.45;;
30770;SDS011;17502;51.698;-0.292;2022-09-03T10:38:33;3.40;;;2.35;;
30770;SDS011;17502;51.698;-0.292;2022-09-03T10:46:09;5.15;;;2.38;;
30770;SDS011;17502;51.698;-0.292;2022-09-03T10:48:47;9.15;;;2.47;;
30770;SDS011;17502;51.698;-0.292;2022-09-03T10:51:19;2.90;;;1.92;;
30770;SDS011;17502;51.698;-0.292;2022-09-03T10:56:21;4.30;;;2.15;;
30770;SDS011;17502;51.698;-0.292;2022-09-03T11:01:31;7.78;;;2.30;;
30770;SDS011;17502;51.698;-0.292;2022-09-03T11:06:27;2.08;;;1.77;;
30770;SDS011;17502;51.698;-0.292;2022-09-03T11:14:34;3.13;;;1.70;;
30770;SDS011;17502;51.698;-0.292;2022-09-03T11:17:14;4.35;;;1.85;;
30770;SDS011;17502;51.698;-0.292;2022-09-03T11:19:44;3.65;;;1.90;;
30770;SDS011;17502;51.698;-0.292;2022-09-03T11:22:11;1.67;;;1.40;;
30770;SDS011;17502;51.698;-0.292;2022-09-03T11:24:40;3.28;;;1.50;;
30770;SDS011;17502;51.698;-0.292;2022-09-03T11:30:02;3.00;;;1.92;;
30770;SDS011;17502;51.698;-0.292;2022-09-03T11:35:16;2.55;;;1.65;;
30770;SDS011;17502;51.698;-0.292;2022-09-03T11:37:52;2.28;;;1.60;;
30770;SDS011;17502;51.698;-0.292;2022-09-03T11:40:19;3.15;;;1.90;;
30770;SDS011;17502;51.698;-0.292;2022-09-03T11:42:47;6.03;;;2.35;;
30770;SDS011;17502;51.698;-0.292;2022-09-03T11:45:33;3.60;;;1.83;;
30770;SDS011;17502;51.698;-0.292;2022-09-03T11:48:00;2.22;;;1.67;;
30770;SDS011;17502;51.698;-0.292;2022-09-03T11:50:31;3.58;;;2.00;;
30770;SDS011;17502;51.698;-0.292;2022-09-03T11:55:52;2.70;;;1.85;;
30770;SDS011;17502;51.698;-0.292;2022-09-03T11:58:28;1.98;;;1.70;;
30770;SDS011;17502;51.698;-0.292;2022-09-03T12:00:56;6.65;;;2.50;;
30770;SDS011;17502;51.698;-0.292;2022-09-03T12:03:44;6.68;;;2.75;;
30770;SDS011;17502;51.698;-0.292;2022-09-03T12:06:14;6.45;;;2.22;;
30770;SDS011;17502;51.698;-0.292;2022-09-03T12:13:46;5.18;;;2.35;;
30770;SDS011;17502;51.698;-0.292;2022-09-03T12:18:53;3.45;;;1.58;;
30770;SDS011;17502;51.698;-0.292;2022-09-03T12:21:21;3.75;;;2.13;;
30770;SDS011;17502;51.698;-0.292;2022-09-03T12:23:49;3.65;;;1.83;;
30770;SDS011;17502;51.698;-0.292;2022-09-03T12:26:22;6.68;;;3.00;;
30770;SDS011;17502;51.698;-0.292;2022-09-03T12:28:52;3.92;;;2.30;;
30770;SDS011;17502;51.698;-0.292;2022-09-03T12:31:21;3.40;;;2.13;;
30770;SDS011;17502;51.698;-0.292;2022-09-03T12:33:49;4.93;;;2.05;;
30770;SDS011;17502;51.698;-0.292;2022-09-03T12:36:17;3.53;;;2.22;;
30770;SDS011;17502;51.698;-0.292;2022-09-03T12:38:44;6.15;;;2.92;;
30770;SDS011;17502;51.698;-0.292;2022-09-03T12:43:50;10.48;;;2.00;;
30770;SDS011;17502;51.698;-0.292;2022-09-03T12:46:17;4.00;;;2.20;;
30770;SDS011;17502;51.698;-0.292;2022-09-03T12:48:55;3.63;;;2.13;;
30770;SDS011;17502;51.698;-0.292;2022-09-03T12:51:21;12.07;;;1.75;;
30770;SDS011;17502;51.698;-0.292;2022-09-03T12:53:47;2.78;;;2.35;;
30770;SDS011;17502;51.698;-0.292;2022-09-03T12:56:15;2.83;;;2.03;;
30770;SDS011;17502;51.698;-0.292;2022-09-03T12:58:49;2.63;;;1.70;;
30770;SDS011;17502;51.698;-0.292;2022-09-03T13:01:27;4.13;;;1.73;;
30770;SDS011;17502;51.698;-0.292;2022-09-03T13:04:05;3.42;;;2.10;;
30770;SDS011;17502;51.698;-0.292;2022-09-03T13:09:27;6.40;;;2.33;;
30770;SDS011;17502;51.698;-0.292;2022-09-03T13:11:55;8.73;;;3.97;;
30770;SDS011;17502;51.698;-0.292;2022-09-03T13:14:23;14.45;;;4.10;;
30770;SDS011;17502;51.698;-0.292;2022-09-03T13:17:01;19.27;;;4.53;;
30770;SDS011;17502;51.698;-0.292;2022-09-03T13:19:42;14.13;;;4.43;;
30770;SDS011;17502;51.698;-0.292;2022-09-03T13:22:24;9.73;;;3.92;;
30770;SDS011;17502;51.698;-0.292;2022-09-03T13:32:26;11.68;;;6.00;;
30770;SDS011;17502;51.698;-0.292;2022-09-03T13:34:55;9.93;;;4.47;;
30770;SDS011;17502;51.698;-0.292;2022-09-03T13:39:58;9.98;;;4.85;;
30770;SDS011;17502;51.698;-0.292;2022-09-03T13:47:26;14.30;;;5.15;;
30770;SDS011;17502;51.698;-0.292;2022-09-03T13:50:01;11.38;;;4.57;;
30770;SDS011;17502;51.698;-0.292;2022-09-03T14:00:20;6.65;;;4.68;;
30770;SDS011;17502;51.698;-0.292;2022-09-03T14:03:10;10.07;;;3.42;;
30770;SDS011;17502;51.698;-0.292;2022-09-03T14:08:25;9.65;;;3.72;;
30770;SDS011;17502;51.698;-0.292;2022-09-03T14:16:06;5.32;;;3.47;;
30770;SDS011;17502;51.698;-0.292;2022-09-03T14:18:50;7.65;;;4.10;;
30770;SDS011;17502;51.698;-0.292;2022-09-03T14:21:21;7.47;;;3.90;;
30770;SDS011;17502;51.698;-0.292;2022-09-03T14:23:51;8.52;;;4.60;;
30770;SDS011;17502;51.698;-0.292;2022-09-03T14:26:21;6.93;;;3.85;;
30770;SDS011;17502;51.698;-0.292;2022-09-03T14:29:00;9.23;;;4.43;;
30770;SDS011;17502;51.698;-0.292;2022-09-03T14:34:15;8.73;;;4.68;;
30770;SDS011;17502;51.698;-0.292;2022-09-03T14:36:54;9.68;;;4.22;;
30770;SDS011;17502;51.698;-0.292;2022-09-03T14:39:44;7.40;;;4.53;;
30770;SDS011;17502;51.698;-0.292;2022-09-03T14:42:22;12.18;;;5.43;;
30770;SDS011;17502;51.698;-0.292;2022-09-03T14:52:58;10.27;;;5.07;;
30770;SDS011;17502;51.698;-0.292;2022-09-03T15:08:35;10.45;;;5.32;;
30770;SDS011;17502;51.698;-0.292;2022-09-03T15:11:09;10.40;;;5.28;;
30770;SDS011;17502;51.698;-0.292;2022-09-03T15:13:44;13.73;;;4.88;;
30770;SDS011;17502;51.698;-0.292;2022-09-03T15:16:30;10.53;;;4.80;;
30770;SDS011;17502;51.698;-0.292;2022-09-03T15:21:49;7.15;;;4.05;;
30770;SDS011;17502;51.698;-0.292;2022-09-03T15:27:09;13.02;;;4.93;;
30770;SDS011;17502;51.698;-0.292;2022-09-03T15:32:08;8.70;;;4.78;;
30770;SDS011;17502;51.698;-0.292;2022-09-03T15:34:40;7.63;;;4.70;;
30770;SDS011;17502;51.698;-0.292;2022-09-03T15:37:09;7.10;;;3.55;;
30770;SDS011;17502;51.698;-0.292;2022-09-03T15:39:37;7.47;;;4.07;;
30770;SDS011;17502;51.698;-0.292;2022-09-03T15:42:10;7.82;;;4.15;;
30770;SDS011;17502;51.698;-0.292;2022-09-03T15:44:50;3.58;;;2.60;;
30770;SDS011;17502;51.698;-0.292;2022-09-03T15:47:31;7.67;;;3.33;;
30770;SDS011;17502;51.698;-0.292;2022-09-03T15:55:37;5.55;;;3.05;;
30770;SDS011;17502;51.698;-0.292;2022-09-03T15:58:17;2.72;;;2.00;;
30770;SDS011;17502;51.698;-0.292;2022-09-03T16:00:53;4.38;;;2.53;;
30770;SDS011;17502;51.698;-0.292;2022-09-03T16:03:46;3.78;;;1.92;;
30770;SDS011;17502;51.698;-0.292;2022-09-03T16:06:41;4.85;;;3.05;;
30770;SDS011;17502;51.698;-0.292;2022-09-03T16:14:54;4.38;;;2.92;;
30770;SDS011;17502;51.698;-0.292;2022-09-03T16:17:27;6.18;;;3.08;;
30770;SDS011;17502;51.698;-0.292;2022-09-03T16:19:59;8.57;;;3.95;;
30770;SDS011;17502;51.698;-0.292;2022-09-03T16:22:28;7.82;;;2.72;;
30770;SDS011;17502;51.698;-0.292;2022-09-03T16:25:03;8.90;;;3.67;;
30770;SDS011;17502;51.698;-0.292;2022-09-03T16:30:04;14.82;;;3.90;;
30770;SDS011;17502;51.698;-0.292;2022-09-03T16:33:37;5.82;;;2.78;;
30770;SDS011;17502;51.698;-0.292;2022-09-03T16:40:50;4.53;;;2.72;;
30770;SDS011;17502;51.698;-0.292;2022-09-03T16:43:23;5.80;;;3.22;;
30770;SDS011;17502;51.698;-0.292;2022-09-03T16:46:03;8.77;;;3.65;;
30770;SDS011;17502;51.698;-0.292;2022-09-03T16:51:12;7.07;;;3.72;;
30770;SDS011;17502;51.698;-0.292;2022-09-03T17:04:07;9.80;;;3.17;;
30770;SDS011;17502;51.698;-0.292;2022-09-03T17:09:16;4.78;;;2.90;;
30770;SDS011;17502;51.698;-0.292;2022-09-03T17:11:57;3.35;;;1.95;;
30770;SDS011;17502;51.698;-0.292;2022-09-03T17:17:02;4.70;;;2.80;;
30770;SDS011;17502;51.698;-0.292;2022-09-03T17:25:02;7.15;;;3.47;;
30770;SDS011;17502;51.698;-0.292;2022-09-03T17:30:26;9.38;;;3.03;;
30770;SDS011;17502;51.698;-0.292;2022-09-03T17:35:45;6.97;;;3.65;;
30770;SDS011;17502;51.698;-0.292;2022-09-03T17:43:13;5.28;;;3.05;;
30770;SDS011;17502;51.698;-0.292;2022-09-03T17:45:50;4.28;;;2.95;;
30770;SDS011;17502;51.698;-0.292;2022-09-03T17:48:25;7.72;;;3.92;;
30770;SDS011;17502;51.698;-0.292;2022-09-03T17:56:10;5.60;;;2.97;;
30770;SDS011;17502;51.698;-0.292;2022-09-03T17:58:40;8.43;;;3.60;;
30770;SDS011;17502;51.698;-0.292;2022-09-03T18:08:49;11.57;;;5.35;;
30770;SDS011;17502;51.698;-0.292;2022-09-03T18:11:18;11.20;;;4.90;;
30770;SDS011;17502;51.698;-0.292;2022-09-03T18:13:57;12.00;;;4.03;;
30770;SDS011;17502;51.698;-0.292;2022-09-03T18:16:32;9.15;;;4.55;;
30770;SDS011;17502;51.698;-0.292;2022-09-03T18:19:05;6.28;;;4.07;;
30770;SDS011;17502;51.698;-0.292;2022-09-03T18:21:42;7.90;;;4.20;;
30770;SDS011;17502;51.698;-0.292;2022-09-03T18:30:13;9.35;;;3.42;;
30770;SDS011;17502;51.698;-0.292;2022-09-03T18:32:59;12.27;;;3.55;;
30770;SDS011;17502;51.698;-0.292;2022-09-03T18:35:44;6.55;;;3.22;;
30770;SDS011;17502;51.698;-0.292;2022-09-03T18:38:33;7.20;;;4.47;;
30770;SDS011;17502;51.698;-0.292;2022-09-03T18:44:27;8.15;;;4.28;;